sensor_id;sensor_type;location;lat;lon;timestamp;temperature;humidity
66608;DHT22;53462;39.616;8.824;2022-12-10T00:01:52;15.10;99.90
66608;DHT22;53462;39.616;8.824;2022-12-10T00:04:20;15.10;99.90
66608;DHT22;53462;39.616;8.824;2022-12-10T00:06:46;15.10;99.90
66608;DHT22;53462;39.616;8.824;2022-12-10T00:09:15;15.10;99.90
66608;DHT22;53462;39.616;8.824;2022-12-10T00:11:41;15.00;99.90
66608;DHT22;53462;39.616;8.824;2022-12-10T00:14:08;14.90;99.90
66608;DHT22;53462;39.616;8.824;2022-12-10T00:16:35;14.80;99.90
66608;DHT22;53462;39.616;8.824;2022-12-10T00:19:01;14.90;99.90
66608;DHT22;53462;39.616;8.824;2022-12-10T00:21:30;14.90;99.90
66608;DHT22;53462;39.616;8.824;2022-12-10T00:23:57;14.80;99.90
66608;DHT22;53462;39.616;8.824;2022-12-10T00:26:27;14.80;99.90
66608;DHT22;53462;39.616;8.824;2022-12-10T00:28:54;15.00;99.90
66608;DHT22;53462;39.616;8.824;2022-12-10T00:31:24;15.00;99.90
66608;DHT22;53462;39.616;8.824;2022-12-10T00:33:50;14.80;99.90
66608;DHT22;53462;39.616;8.824;2022-12-10T00:36:24;14.70;99.90
66608;DHT22;53462;39.616;8.824;2022-12-10T00:38:51;14.50;99.90
66608;DHT22;53462;39.616;8.824;2022-12-10T00:41:19;14.50;99.90
66608;DHT22;53462;39.616;8.824;2022-12-10T00:43:45;14.30;99.90
66608;DHT22;53462;39.616;8.824;2022-12-10T00:46:12;14.40;99.90
66608;DHT22;53462;39.616;8.824;2022-12-10T00:48:40;14.30;99.90
66608;DHT22;53462;39.616;8.824;2022-12-10T00:51:15;14.40;99.90
66608;DHT22;53462;39.616;8.824;2022-12-10T00:53:43;14.50;99.90
66608;DHT22;53462;39.616;8.824;2022-12-10T00:56:11;14.60;99.90
66608;DHT22;53462;39.616;8.824;2022-12-10T00:58:38;14.50;99.90
66608;DHT22;53462;39.616;8.824;2022-12-10T01:01:17;14.60;99.90
66608;DHT22;53462;39.616;8.824;2022-12-10T01:03:45;14.60;99.90
66608;DHT22;53462;39.616;8.824;2022-12-10T01:08:47;14.60;99.90
66608;DHT22;53462;39.616;8.824;2022-12-10T01:11:15;14.70;99.90
66608;DHT22;53462;39.616;8.824;2022-12-10T01:13:42;14.70;99.90
66608;DHT22;53462;39.616;8.824;2022-12-10T01:16:10;14.70;99.90
66608;DHT22;53462;39.616;8.824;2022-12-10T01:18:37;14.70;99.90
66608;DHT22;53462;39.616;8.824;2022-12-10T01:21:07;14.70;99.90
66608;DHT22;53462;39.616;8.824;2022-12-10T01:23:37;14.70;99.90
66608;DHT22;53462;39.616;8.824;2022-12-10T01:26:09;14.70;99.90
66608;DHT22;53462;39.616;8.824;2022-12-10T01:28:37;14.70;99.90
66608;DHT22;53462;39.616;8.824;2022-12-10T01:31:06;14.80;99.90
66608;DHT22;53462;39.616;8.824;2022-12-10T01:33:32;14.60;99.90
66608;DHT22;53462;39.616;8.824;2022-12-10T01:36:08;14.60;99.90
66608;DHT22;53462;39.616;8.824;2022-12-10T01:38:35;14.70;99.90
66608;DHT22;53462;39.616;8.824;2022-12-10T01:41:04;14.70;99.90
66608;DHT22;53462;39.616;8.824;2022-12-10T01:44:00;14.70;99.90
66608;DHT22;53462;39.616;8.824;2022-12-10T01:46:30;14.70;99.90
66608;DHT22;53462;39.616;8.824;2022-12-10T01:48:58;14.60;99.90
66608;DHT22;53462;39.616;8.824;2022-12-10T01:51:26;14.60;99.90
66608;DHT22;53462;39.616;8.824;2022-12-10T01:53:53;14.60;99.90
66608;DHT22;53462;39.616;8.824;2022-12-10T01:56:19;14.70;99.90
66608;DHT22;53462;39.616;8.824;2022-12-10T01:58:47;14.70;99.90
66608;DHT22;53462;39.616;8.824;2022-12-10T02:04:50;14.60;99.90
66608;DHT22;53462;39.616;8.824;2022-12-10T02:10:10;14.60;99.90
66608;DHT22;53462;39.616;8.824;2022-12-10T02:12:47;14.70;99.90
66608;DHT22;53462;39.616;8.824;2022-12-10T02:15:17;14.70;99.90
66608;DHT22;53462;39.616;8.824;2022-12-10T02:17:52;14.70;99.90
66608;DHT22;53462;39.616;8.824;2022-12-10T02:20:24;14.80;99.90
66608;DHT22;53462;39.616;8.824;2022-12-10T02:23:03;14.70;99.90
66608;DHT22;53462;39.616;8.824;2022-12-10T02:26:14;14.70;99.90
66608;DHT22;53462;39.616;8.824;2022-12-10T02:29:12;14.60;99.90
66608;DHT22;53462;39.616;8.824;2022-12-10T02:31:52;14.70;99.90
66608;DHT22;53462;39.616;8.824;2022-12-10T02:34:19;14.70;99.90
66608;DHT22;53462;39.616;8.824;2022-12-10T02:36:49;14.80;99.90
66608;DHT22;53462;39.616;8.824;2022-12-10T02:39:20;14.80;99.90
66608;DHT22;53462;39.616;8.824;2022-12-10T02:41:54;14.90;99.90
66608;DHT22;53462;39.616;8.824;2022-12-10T02:44:23;14.90;99.90
66608;DHT22;53462;39.616;8.824;2022-12-10T02:46:53;14.90;99.90
66608;DHT22;53462;39.616;8.824;2022-12-10T02:49:24;14.90;99.90
66608;DHT22;53462;39.616;8.824;2022-12-10T02:51:52;14.90;99.90
66608;DHT22;53462;39.616;8.824;2022-12-10T02:54:49;14.90;99.90
66608;DHT22;53462;39.616;8.824;2022-12-10T03:00:03;14.80;99.90
66608;DHT22;53462;39.616;8.824;2022-12-10T03:07:59;14.40;99.90
66608;DHT22;53462;39.616;8.824;2022-12-10T03:13:34;14.40;99.90
66608;DHT22;53462;39.616;8.824;2022-12-10T03:16:02;14.40;99.90
66608;DHT22;53462;39.616;8.824;2022-12-10T03:18:31;14.40;99.90
66608;DHT22;53462;39.616;8.824;2022-12-10T03:21:04;14.40;99.90
66608;DHT22;53462;39.616;8.824;2022-12-10T03:23:31;14.40;99.90
66608;DHT22;53462;39.616;8.824;2022-12-10T03:25:58;14.50;99.90
66608;DHT22;53462;39.616;8.824;2022-12-10T03:28:26;14.50;99.90
66608;DHT22;53462;39.616;8.824;2022-12-10T03:30:55;14.60;99.90
66608;DHT22;53462;39.616;8.824;2022-12-10T03:33:22;14.60;99.90
66608;DHT22;53462;39.616;8.824;2022-12-10T03:35:49;14.70;99.90
66608;DHT22;53462;39.616;8.824;2022-12-10T03:38:15;14.70;99.90
66608;DHT22;53462;39.616;8.824;2022-12-10T03:40:41;14.80;99.90
66608;DHT22;53462;39.616;8.824;2022-12-10T03:43:07;14.70;99.90
66608;DHT22;53462;39.616;8.824;2022-12-10T03:45:33;14.90;99.90
66608;DHT22;53462;39.616;8.824;2022-12-10T03:47:59;14.80;99.90
66608;DHT22;53462;39.616;8.824;2022-12-10T03:50:25;14.80;99.90
66608;DHT22;53462;39.616;8.824;2022-12-10T03:52:51;15.00;99.90
66608;DHT22;53462;39.616;8.824;2022-12-10T03:55:17;14.90;99.90
66608;DHT22;53462;39.616;8.824;2022-12-10T03:57:43;14.90;99.90
66608;DHT22;53462;39.616;8.824;2022-12-10T04:00:09;14.90;99.90
66608;DHT22;53462;39.616;8.824;2022-12-10T04:02:38;14.90;99.90
66608;DHT22;53462;39.616;8.824;2022-12-10T04:05:04;14.90;99.90
66608;DHT22;53462;39.616;8.824;2022-12-10T04:07:32;15.00;99.90
66608;DHT22;53462;39.616;8.824;2022-12-10T04:09:58;14.90;99.90
66608;DHT22;53462;39.616;8.824;2022-12-10T04:12:24;14.90;99.90
66608;DHT22;53462;39.616;8.824;2022-12-10T04:14:50;14.90;99.90
66608;DHT22;53462;39.616;8.824;2022-12-10T04:17:34;14.90;99.90
66608;DHT22;53462;39.616;8.824;2022-12-10T04:20:01;14.90;99.90
66608;DHT22;53462;39.616;8.824;2022-12-10T04:22:27;14.90;99.90
66608;DHT22;53462;39.616;8.824;2022-12-10T04:25:12;14.90;99.90
66608;DHT22;53462;39.616;8.824;2022-12-10T04:27:57;14.80;99.90
66608;DHT22;53462;39.616;8.824;2022-12-10T04:30:23;14.80;99.90
66608;DHT22;53462;39.616;8.824;2022-12-10T04:32:49;14.70;99.90
66608;DHT22;53462;39.616;8.824;2022-12-10T04:35:15;14.70;99.90
66608;DHT22;53462;39.616;8.824;2022-12-10T04:37:41;14.70;99.90
66608;DHT22;53462;39.616;8.824;2022-12-10T04:40:07;14.70;99.90
66608;DHT22;53462;39.616;8.824;2022-12-10T04:42:33;14.70;99.90
66608;DHT22;53462;39.616;8.824;2022-12-10T04:44:59;14.70;99.90
66608;DHT22;53462;39.616;8.824;2022-12-10T04:47:25;14.70;99.90
66608;DHT22;53462;39.616;8.824;2022-12-10T04:49:51;14.60;99.90
66608;DHT22;53462;39.616;8.824;2022-12-10T04:52:17;14.70;99.90
66608;DHT22;53462;39.616;8.824;2022-12-10T04:54:44;14.60;99.90
66608;DHT22;53462;39.616;8.824;2022-12-10T04:57:10;14.70;99.90
66608;DHT22;53462;39.616;8.824;2022-12-10T04:59:36;14.70;99.90
66608;DHT22;53462;39.616;8.824;2022-12-10T05:02:03;14.50;99.90
66608;DHT22;53462;39.616;8.824;2022-12-10T05:04:29;14.40;99.90
66608;DHT22;53462;39.616;8.824;2022-12-10T05:06:55;14.30;99.90
66608;DHT22;53462;39.616;8.824;2022-12-10T05:09:21;14.30;99.90
66608;DHT22;53462;39.616;8.824;2022-12-10T05:11:48;14.40;99.90
66608;DHT22;53462;39.616;8.824;2022-12-10T05:14:15;14.30;99.90
66608;DHT22;53462;39.616;8.824;2022-12-10T05:16:41;14.40;99.90
66608;DHT22;53462;39.616;8.824;2022-12-10T05:19:08;14.40;99.90
66608;DHT22;53462;39.616;8.824;2022-12-10T05:21:34;14.30;99.90
66608;DHT22;53462;39.616;8.824;2022-12-10T05:24:19;14.40;99.90
66608;DHT22;53462;39.616;8.824;2022-12-10T05:26:45;14.40;99.90
66608;DHT22;53462;39.616;8.824;2022-12-10T05:29:12;14.40;99.90
66608;DHT22;53462;39.616;8.824;2022-12-10T05:31:38;14.40;99.90
66608;DHT22;53462;39.616;8.824;2022-12-10T05:34:04;14.30;99.90
66608;DHT22;53462;39.616;8.824;2022-12-10T05:36:31;14.40;99.90
66608;DHT22;53462;39.616;8.824;2022-12-10T05:38:58;14.30;99.90
66608;DHT22;53462;39.616;8.824;2022-12-10T05:41:30;14.30;99.90
66608;DHT22;53462;39.616;8.824;2022-12-10T05:43:58;14.20;99.90
66608;DHT22;53462;39.616;8.824;2022-12-10T05:46:26;14.10;99.90
66608;DHT22;53462;39.616;8.824;2022-12-10T05:48:52;14.10;99.90
66608;DHT22;53462;39.616;8.824;2022-12-10T05:51:21;14.10;99.90
66608;DHT22;53462;39.616;8.824;2022-12-10T05:53:48;14.20;99.90
66608;DHT22;53462;39.616;8.824;2022-12-10T05:56:16;14.20;99.90
66608;DHT22;53462;39.616;8.824;2022-12-10T05:58:45;14.20;99.90
66608;DHT22;53462;39.616;8.824;2022-12-10T06:01:20;14.20;99.90
66608;DHT22;53462;39.616;8.824;2022-12-10T06:03:46;14.20;99.90
66608;DHT22;53462;39.616;8.824;2022-12-10T06:06:13;14.10;99.90
66608;DHT22;53462;39.616;8.824;2022-12-10T06:08:39;14.00;99.90
66608;DHT22;53462;39.616;8.824;2022-12-10T06:11:10;13.80;99.90
66608;DHT22;53462;39.616;8.824;2022-12-10T06:13:37;13.60;99.90
66608;DHT22;53462;39.616;8.824;2022-12-10T06:16:12;13.60;99.90
66608;DHT22;53462;39.616;8.824;2022-12-10T06:18:38;13.50;99.90
66608;DHT22;53462;39.616;8.824;2022-12-10T06:21:05;13.50;99.90
66608;DHT22;53462;39.616;8.824;2022-12-10T06:23:34;13.50;99.90
66608;DHT22;53462;39.616;8.824;2022-12-10T06:26:05;13.50;99.90
66608;DHT22;53462;39.616;8.824;2022-12-10T06:28:31;13.50;99.90
66608;DHT22;53462;39.616;8.824;2022-12-10T06:30:58;13.50;99.90
66608;DHT22;53462;39.616;8.824;2022-12-10T06:33:25;13.50;99.90
66608;DHT22;53462;39.616;8.824;2022-12-10T06:35:51;13.40;99.90
66608;DHT22;53462;39.616;8.824;2022-12-10T06:38:17;13.50;99.90
66608;DHT22;53462;39.616;8.824;2022-12-10T06:40:43;13.50;99.90
66608;DHT22;53462;39.616;8.824;2022-12-10T06:43:08;13.50;99.90
66608;DHT22;53462;39.616;8.824;2022-12-10T06:45:38;13.50;99.90
66608;DHT22;53462;39.616;8.824;2022-12-10T06:48:04;13.60;99.90
66608;DHT22;53462;39.616;8.824;2022-12-10T06:50:30;13.70;99.90
66608;DHT22;53462;39.616;8.824;2022-12-10T06:52:56;13.70;99.90
66608;DHT22;53462;39.616;8.824;2022-12-10T06:55:22;13.70;99.90
66608;DHT22;53462;39.616;8.824;2022-12-10T06:57:52;13.70;99.90
66608;DHT22;53462;39.616;8.824;2022-12-10T07:00:18;13.80;99.90
66608;DHT22;53462;39.616;8.824;2022-12-10T07:02:45;13.80;99.90
66608;DHT22;53462;39.616;8.824;2022-12-10T07:05:11;13.80;99.90
66608;DHT22;53462;39.616;8.824;2022-12-10T07:07:37;13.80;99.90
66608;DHT22;53462;39.616;8.824;2022-12-10T07:10:04;13.70;99.90
66608;DHT22;53462;39.616;8.824;2022-12-10T07:12:30;13.70;99.90
66608;DHT22;53462;39.616;8.824;2022-12-10T07:14:56;13.40;99.90
66608;DHT22;53462;39.616;8.824;2022-12-10T07:17:22;13.50;99.90
66608;DHT22;53462;39.616;8.824;2022-12-10T07:19:48;13.50;99.90
66608;DHT22;53462;39.616;8.824;2022-12-10T07:22:14;13.60;99.90
66608;DHT22;53462;39.616;8.824;2022-12-10T07:24:40;13.60;99.90
66608;DHT22;53462;39.616;8.824;2022-12-10T07:27:06;13.80;99.90
66608;DHT22;53462;39.616;8.824;2022-12-10T07:29:33;13.70;99.90
66608;DHT22;53462;39.616;8.824;2022-12-10T07:31:58;13.80;99.90
66608;DHT22;53462;39.616;8.824;2022-12-10T07:34:24;13.90;99.90
66608;DHT22;53462;39.616;8.824;2022-12-10T07:36:50;14.00;99.90
66608;DHT22;53462;39.616;8.824;2022-12-10T07:39:16;14.00;99.90
66608;DHT22;53462;39.616;8.824;2022-12-10T07:41:48;14.00;99.90
66608;DHT22;53462;39.616;8.824;2022-12-10T07:44:19;14.10;99.90
66608;DHT22;53462;39.616;8.824;2022-12-10T07:46:48;14.20;99.90
66608;DHT22;53462;39.616;8.824;2022-12-10T07:49:14;14.30;99.90
66608;DHT22;53462;39.616;8.824;2022-12-10T07:51:43;14.40;99.90
66608;DHT22;53462;39.616;8.824;2022-12-10T07:54:09;14.40;99.90
66608;DHT22;53462;39.616;8.824;2022-12-10T07:56:35;14.40;99.90
66608;DHT22;53462;39.616;8.824;2022-12-10T07:59:01;14.40;99.90
66608;DHT22;53462;39.616;8.824;2022-12-10T08:01:26;14.40;99.90
66608;DHT22;53462;39.616;8.824;2022-12-10T08:03:54;14.40;99.90
66608;DHT22;53462;39.616;8.824;2022-12-10T08:06:22;14.40;99.90
66608;DHT22;53462;39.616;8.824;2022-12-10T08:08:49;14.50;99.90
66608;DHT22;53462;39.616;8.824;2022-12-10T08:11:17;14.40;99.90
66608;DHT22;53462;39.616;8.824;2022-12-10T08:13:43;14.40;99.90
66608;DHT22;53462;39.616;8.824;2022-12-10T08:16:18;14.50;99.90
66608;DHT22;53462;39.616;8.824;2022-12-10T08:18:45;14.50;99.90
66608;DHT22;53462;39.616;8.824;2022-12-10T08:21:13;14.70;99.90
66608;DHT22;53462;39.616;8.824;2022-12-10T08:23:40;14.80;99.90
66608;DHT22;53462;39.616;8.824;2022-12-10T08:26:07;14.80;99.90
66608;DHT22;53462;39.616;8.824;2022-12-10T08:28:34;14.90;99.90
66608;DHT22;53462;39.616;8.824;2022-12-10T08:31:01;15.00;99.90
66608;DHT22;53462;39.616;8.824;2022-12-10T08:33:27;15.00;99.90
66608;DHT22;53462;39.616;8.824;2022-12-10T08:35:57;15.10;99.90
66608;DHT22;53462;39.616;8.824;2022-12-10T08:38:24;15.90;99.90
66608;DHT22;53462;39.616;8.824;2022-12-10T08:40:49;16.70;99.90
66608;DHT22;53462;39.616;8.824;2022-12-10T08:43:15;16.80;99.90
66608;DHT22;53462;39.616;8.824;2022-12-10T08:45:41;18.00;99.90
66608;DHT22;53462;39.616;8.824;2022-12-10T08:48:07;17.90;99.90
66608;DHT22;53462;39.616;8.824;2022-12-10T08:50:33;17.40;99.90
66608;DHT22;53462;39.616;8.824;2022-12-10T08:53:00;17.40;99.90
66608;DHT22;53462;39.616;8.824;2022-12-10T08:55:26;17.30;99.90
66608;DHT22;53462;39.616;8.824;2022-12-10T08:57:51;17.20;99.90
66608;DHT22;53462;39.616;8.824;2022-12-10T09:00:17;16.90;99.90
66608;DHT22;53462;39.616;8.824;2022-12-10T09:02:45;17.00;99.90
66608;DHT22;53462;39.616;8.824;2022-12-10T09:05:11;16.70;99.90
66608;DHT22;53462;39.616;8.824;2022-12-10T09:07:37;16.60;99.90
66608;DHT22;53462;39.616;8.824;2022-12-10T09:10:03;17.00;99.90
66608;DHT22;53462;39.616;8.824;2022-12-10T09:12:29;17.20;99.90
66608;DHT22;53462;39.616;8.824;2022-12-10T09:14:55;17.10;99.90
66608;DHT22;53462;39.616;8.824;2022-12-10T09:17:21;17.10;99.90
66608;DHT22;53462;39.616;8.824;2022-12-10T09:19:47;17.10;99.90
66608;DHT22;53462;39.616;8.824;2022-12-10T09:22:13;17.00;99.90
66608;DHT22;53462;39.616;8.824;2022-12-10T09:24:39;17.10;99.90
66608;DHT22;53462;39.616;8.824;2022-12-10T09:27:05;18.20;99.90
66608;DHT22;53462;39.616;8.824;2022-12-10T09:29:31;19.40;99.90
66608;DHT22;53462;39.616;8.824;2022-12-10T09:31:57;20.10;98.30
66608;DHT22;53462;39.616;8.824;2022-12-10T09:34:23;19.50;99.90
66608;DHT22;53462;39.616;8.824;2022-12-10T09:36:49;19.00;99.90
66608;DHT22;53462;39.616;8.824;2022-12-10T09:39:15;18.60;99.90
66608;DHT22;53462;39.616;8.824;2022-12-10T09:44:43;17.80;99.90
66608;DHT22;53462;39.616;8.824;2022-12-10T09:47:10;17.40;99.90
66608;DHT22;53462;39.616;8.824;2022-12-10T09:52:36;16.50;99.90
66608;DHT22;53462;39.616;8.824;2022-12-10T09:55:16;16.00;99.90
66608;DHT22;53462;39.616;8.824;2022-12-10T09:57:45;15.70;99.90
66608;DHT22;53462;39.616;8.824;2022-12-10T10:00:34;15.60;99.90
66608;DHT22;53462;39.616;8.824;2022-12-10T10:03:02;15.80;99.90
66608;DHT22;53462;39.616;8.824;2022-12-10T10:05:31;15.70;99.90
66608;DHT22;53462;39.616;8.824;2022-12-10T10:08:02;15.70;99.90
66608;DHT22;53462;39.616;8.824;2022-12-10T10:10:33;15.80;99.90
66608;DHT22;53462;39.616;8.824;2022-12-10T10:21:42;15.20;99.90
66608;DHT22;53462;39.616;8.824;2022-12-10T10:24:14;15.40;99.90
66608;DHT22;53462;39.616;8.824;2022-12-10T10:26:41;15.60;99.90
66608;DHT22;53462;39.616;8.824;2022-12-10T10:29:11;15.80;99.90
66608;DHT22;53462;39.616;8.824;2022-12-10T10:31:40;15.90;99.90
66608;DHT22;53462;39.616;8.824;2022-12-10T10:34:20;16.50;99.90
66608;DHT22;53462;39.616;8.824;2022-12-10T10:36:53;16.90;99.90
66608;DHT22;53462;39.616;8.824;2022-12-10T10:39:28;17.10;99.90
66608;DHT22;53462;39.616;8.824;2022-12-10T10:41:57;17.00;99.90
66608;DHT22;53462;39.616;8.824;2022-12-10T10:44:26;17.00;99.90
66608;DHT22;53462;39.616;8.824;2022-12-10T10:46:55;16.80;99.90
66608;DHT22;53462;39.616;8.824;2022-12-10T10:49:29;16.30;99.90
66608;DHT22;53462;39.616;8.824;2022-12-10T10:52:06;16.90;99.90
66608;DHT22;53462;39.616;8.824;2022-12-10T10:54:39;16.80;99.90
66608;DHT22;53462;39.616;8.824;2022-12-10T10:59:52;24.40;77.30
66608;DHT22;53462;39.616;8.824;2022-12-10T11:02:20;22.50;79.40
66608;DHT22;53462;39.616;8.824;2022-12-10T11:04:51;22.70;78.50
66608;DHT22;53462;39.616;8.824;2022-12-10T11:07:34;20.40;88.20
66608;DHT22;53462;39.616;8.824;2022-12-10T11:10:03;20.30;90.10
66608;DHT22;53462;39.616;8.824;2022-12-10T11:12:39;18.90;90.80
66608;DHT22;53462;39.616;8.824;2022-12-10T11:15:30;17.80;96.10
66608;DHT22;53462;39.616;8.824;2022-12-10T11:17:57;17.60;99.90
66608;DHT22;53462;39.616;8.824;2022-12-10T11:20:28;17.70;99.90
66608;DHT22;53462;39.616;8.824;2022-12-10T11:22:56;17.40;99.90
66608;DHT22;53462;39.616;8.824;2022-12-10T11:30:59;17.70;99.90
66608;DHT22;53462;39.616;8.824;2022-12-10T11:36:27;16.30;99.90
66608;DHT22;53462;39.616;8.824;2022-12-10T11:42:11;15.70;99.90
66608;DHT22;53462;39.616;8.824;2022-12-10T11:47:31;15.30;99.90
66608;DHT22;53462;39.616;8.824;2022-12-10T11:53:02;14.60;99.90
66608;DHT22;53462;39.616;8.824;2022-12-10T11:56:00;14.40;99.90
66608;DHT22;53462;39.616;8.824;2022-12-10T12:01:32;14.00;99.90
66608;DHT22;53462;39.616;8.824;2022-12-10T12:07:16;13.70;99.90
66608;DHT22;53462;39.616;8.824;2022-12-10T12:12:54;13.60;99.90
66608;DHT22;53462;39.616;8.824;2022-12-10T12:15:47;13.60;99.90
66608;DHT22;53462;39.616;8.824;2022-12-10T12:18:41;13.60;99.90
66608;DHT22;53462;39.616;8.824;2022-12-10T12:21:15;13.50;99.90
66608;DHT22;53462;39.616;8.824;2022-12-10T12:24:09;13.60;99.90
66608;DHT22;53462;39.616;8.824;2022-12-10T12:26:40;13.70;99.90
66608;DHT22;53462;39.616;8.824;2022-12-10T12:29:30;13.80;99.90
66608;DHT22;53462;39.616;8.824;2022-12-10T12:32:15;13.90;99.90
66608;DHT22;53462;39.616;8.824;2022-12-10T12:34:50;14.00;99.90
66608;DHT22;53462;39.616;8.824;2022-12-10T12:37:20;14.20;99.90
66608;DHT22;53462;39.616;8.824;2022-12-10T12:43:09;14.50;99.90
66608;DHT22;53462;39.616;8.824;2022-12-10T12:45:44;14.60;99.90
66608;DHT22;53462;39.616;8.824;2022-12-10T12:48:28;14.90;99.90
66608;DHT22;53462;39.616;8.824;2022-12-10T12:53:25;15.20;99.90
66608;DHT22;53462;39.616;8.824;2022-12-10T13:04:17;15.00;99.90
66608;DHT22;53462;39.616;8.824;2022-12-10T13:07:12;14.90;99.90
66608;DHT22;53462;39.616;8.824;2022-12-10T13:15:33;14.60;99.90
66608;DHT22;53462;39.616;8.824;2022-12-10T13:18:38;15.00;99.90
66608;DHT22;53462;39.616;8.824;2022-12-10T13:21:26;15.20;99.90
66608;DHT22;53462;39.616;8.824;2022-12-10T13:23:54;15.60;99.90
66608;DHT22;53462;39.616;8.824;2022-12-10T13:26:29;15.90;99.90
66608;DHT22;53462;39.616;8.824;2022-12-10T13:29:25;16.50;99.90
66608;DHT22;53462;39.616;8.824;2022-12-10T13:32:51;16.70;99.90
66608;DHT22;53462;39.616;8.824;2022-12-10T13:43:22;16.30;99.90
66608;DHT22;53462;39.616;8.824;2022-12-10T13:48:53;15.70;99.90
66608;DHT22;53462;39.616;8.824;2022-12-10T13:57:07;15.40;99.90
66608;DHT22;53462;39.616;8.824;2022-12-10T13:59:45;15.40;99.90
66608;DHT22;53462;39.616;8.824;2022-12-10T14:02:20;15.30;99.90
66608;DHT22;53462;39.616;8.824;2022-12-10T14:07:30;15.10;99.90
66608;DHT22;53462;39.616;8.824;2022-12-10T14:09:57;15.00;99.90
66608;DHT22;53462;39.616;8.824;2022-12-10T14:12:35;15.10;99.90
66608;DHT22;53462;39.616;8.824;2022-12-10T14:15:14;15.00;99.90
66608;DHT22;53462;39.616;8.824;2022-12-10T14:17:42;15.00;99.90
66608;DHT22;53462;39.616;8.824;2022-12-10T14:20:22;15.10;99.90
66608;DHT22;53462;39.616;8.824;2022-12-10T14:22:50;15.10;99.90
66608;DHT22;53462;39.616;8.824;2022-12-10T14:25:20;15.00;99.90
66608;DHT22;53462;39.616;8.824;2022-12-10T14:27:49;14.80;99.90
66608;DHT22;53462;39.616;8.824;2022-12-10T14:32:44;14.50;99.90
66608;DHT22;53462;39.616;8.824;2022-12-10T14:35:20;14.40;99.90
66608;DHT22;53462;39.616;8.824;2022-12-10T14:37:48;14.30;99.90
66608;DHT22;53462;39.616;8.824;2022-12-10T14:40:26;14.30;99.90
66608;DHT22;53462;39.616;8.824;2022-12-10T14:43:04;14.20;99.90
66608;DHT22;53462;39.616;8.824;2022-12-10T14:45:43;14.20;99.90
66608;DHT22;53462;39.616;8.824;2022-12-10T14:48:14;14.10;99.90
66608;DHT22;53462;39.616;8.824;2022-12-10T14:50:42;14.10;99.90
66608;DHT22;53462;39.616;8.824;2022-12-10T14:53:15;14.00;99.90
66608;DHT22;53462;39.616;8.824;2022-12-10T14:55:43;13.90;99.90
66608;DHT22;53462;39.616;8.824;2022-12-10T14:58:17;13.90;99.90
66608;DHT22;53462;39.616;8.824;2022-12-10T15:00:44;13.90;99.90
66608;DHT22;53462;39.616;8.824;2022-12-10T15:03:12;13.80;99.90
66608;DHT22;53462;39.616;8.824;2022-12-10T15:05:41;13.80;99.90
66608;DHT22;53462;39.616;8.824;2022-12-10T15:08:14;13.80;99.90
66608;DHT22;53462;39.616;8.824;2022-12-10T15:10:43;13.60;99.90
66608;DHT22;53462;39.616;8.824;2022-12-10T15:16:00;13.60;99.90
66608;DHT22;53462;39.616;8.824;2022-12-10T15:18:52;13.60;99.90
66608;DHT22;53462;39.616;8.824;2022-12-10T15:21:23;13.60;99.90
66608;DHT22;53462;39.616;8.824;2022-12-10T15:23:50;13.50;99.90
66608;DHT22;53462;39.616;8.824;2022-12-10T15:26:24;13.40;99.90
66608;DHT22;53462;39.616;8.824;2022-12-10T15:28:52;13.40;99.90
66608;DHT22;53462;39.616;8.824;2022-12-10T15:34:25;13.20;99.90
66608;DHT22;53462;39.616;8.824;2022-12-10T15:36:48;13.20;99.90
66608;DHT22;53462;39.616;8.824;2022-12-10T15:39:37;13.20;99.90
66608;DHT22;53462;39.616;8.824;2022-12-10T15:42:08;13.20;99.90
66608;DHT22;53462;39.616;8.824;2022-12-10T15:44:56;13.20;99.90
66608;DHT22;53462;39.616;8.824;2022-12-10T15:47:24;13.20;99.90
66608;DHT22;53462;39.616;8.824;2022-12-10T15:49:53;13.20;99.90
66608;DHT22;53462;39.616;8.824;2022-12-10T15:52:24;13.30;99.90
66608;DHT22;53462;39.616;8.824;2022-12-10T15:54:52;13.20;99.90
66608;DHT22;53462;39.616;8.824;2022-12-10T15:59:48;13.20;99.90
66608;DHT22;53462;39.616;8.824;2022-12-10T16:04:52;13.20;99.90
66608;DHT22;53462;39.616;8.824;2022-12-10T16:07:19;13.20;99.90
66608;DHT22;53462;39.616;8.824;2022-12-10T16:09:45;13.10;99.90
66608;DHT22;53462;39.616;8.824;2022-12-10T16:12:13;13.10;99.90
66608;DHT22;53462;39.616;8.824;2022-12-10T16:14:49;13.10;99.90
66608;DHT22;53462;39.616;8.824;2022-12-10T16:17:17;13.10;99.90
66608;DHT22;53462;39.616;8.824;2022-12-10T16:19:43;13.10;99.90
66608;DHT22;53462;39.616;8.824;2022-12-10T16:22:09;13.10;99.90
66608;DHT22;53462;39.616;8.824;2022-12-10T16:24:36;13.00;99.90
66608;DHT22;53462;39.616;8.824;2022-12-10T16:27:04;13.00;99.90
66608;DHT22;53462;39.616;8.824;2022-12-10T16:29:30;12.90;99.90
66608;DHT22;53462;39.616;8.824;2022-12-10T16:31:56;12.90;99.90
66608;DHT22;53462;39.616;8.824;2022-12-10T16:34:22;12.90;99.90
66608;DHT22;53462;39.616;8.824;2022-12-10T16:36:48;12.90;99.90
66608;DHT22;53462;39.616;8.824;2022-12-10T16:39:14;12.90;99.90
66608;DHT22;53462;39.616;8.824;2022-12-10T16:41:40;12.90;99.90
66608;DHT22;53462;39.616;8.824;2022-12-10T16:44:07;12.80;99.90
66608;DHT22;53462;39.616;8.824;2022-12-10T16:46:33;12.80;99.90
66608;DHT22;53462;39.616;8.824;2022-12-10T16:49:01;12.80;99.90
66608;DHT22;53462;39.616;8.824;2022-12-10T16:51:28;12.80;99.90
66608;DHT22;53462;39.616;8.824;2022-12-10T16:53:55;12.70;99.90
66608;DHT22;53462;39.616;8.824;2022-12-10T16:56:21;12.70;99.90
66608;DHT22;53462;39.616;8.824;2022-12-10T16:58:48;12.70;99.90
66608;DHT22;53462;39.616;8.824;2022-12-10T17:01:23;12.70;99.90
66608;DHT22;53462;39.616;8.824;2022-12-10T17:03:50;12.70;99.90
66608;DHT22;53462;39.616;8.824;2022-12-10T17:06:17;12.70;99.90
66608;DHT22;53462;39.616;8.824;2022-12-10T17:08:44;12.60;99.90
66608;DHT22;53462;39.616;8.824;2022-12-10T17:11:38;12.60;99.90
66608;DHT22;53462;39.616;8.824;2022-12-10T17:14:26;12.60;99.90
66608;DHT22;53462;39.616;8.824;2022-12-10T17:16:54;12.60;99.90
66608;DHT22;53462;39.616;8.824;2022-12-10T17:19:23;12.50;99.90
66608;DHT22;53462;39.616;8.824;2022-12-10T17:21:50;12.50;99.90
66608;DHT22;53462;39.616;8.824;2022-12-10T17:24:16;12.50;99.90
66608;DHT22;53462;39.616;8.824;2022-12-10T17:26:45;12.40;99.90
66608;DHT22;53462;39.616;8.824;2022-12-10T17:31:46;12.40;99.90
66608;DHT22;53462;39.616;8.824;2022-12-10T17:34:13;12.40;99.90
66608;DHT22;53462;39.616;8.824;2022-12-10T17:36:40;12.40;99.90
66608;DHT22;53462;39.616;8.824;2022-12-10T17:39:06;12.30;99.90
66608;DHT22;53462;39.616;8.824;2022-12-10T17:41:35;12.30;99.90
66608;DHT22;53462;39.616;8.824;2022-12-10T17:44:03;12.20;99.90
66608;DHT22;53462;39.616;8.824;2022-12-10T17:46:29;12.20;99.90
66608;DHT22;53462;39.616;8.824;2022-12-10T17:48:55;12.20;99.90